createdAt,value
2023-02-16T04:58:46.196Z,65.40
2023-02-16T04:59:48.712Z,63.40
2023-02-16T05:00:47.237Z,66.40
2023-02-16T05:01:46.995Z,67.60
2023-02-16T05:02:46.905Z,64.80
2023-02-16T05:08:42.052Z,64.50
2023-02-16T05:09:43.031Z,63.70
2023-02-16T05:10:42.979Z,61.70
2023-02-16T05:11:44.923Z,60.50
2023-02-16T05:12:42.961Z,63.80
2023-02-16T05:13:42.954Z,63.90
2023-02-16T05:17:28.966Z,63.50
2023-02-16T05:18:30.026Z,62.90
2023-02-16T05:19:29.930Z,61.10
2023-02-16T05:20:29.872Z,63.60
2023-02-16T05:21:36.683Z,66.00
2023-02-16T05:22:39.741Z,66.10
2023-02-16T05:41:05.141Z,65.30
2023-02-16T05:46:43.283Z,64.20
2023-02-16T05:47:51.889Z,64.30
2023-02-16T05:48:45.735Z,66.10
2023-02-16T05:49:46.254Z,61.80
2023-02-16T05:54:57.041Z,63.40
2023-02-16T05:55:06.999Z,64.30
2023-02-16T05:56:02.883Z,64.10
2023-02-16T05:57:01.975Z,61.30
2023-02-16T05:58:01.975Z,66.10
2023-02-16T05:59:48.932Z,63.30
2023-02-16T06:00:02.184Z,62.80
2023-02-16T06:01:02.216Z,63.60
2023-02-16T06:02:01.971Z,63.60
2023-02-16T06:03:02.063Z,61.30
2023-02-16T06:04:02.004Z,62.80
2023-02-16T06:05:02.146Z,63.60
2023-02-16T06:06:02.685Z,64.70
2023-02-16T06:07:01.855Z,61.60
2023-02-16T06:08:01.932Z,61.00
2023-02-16T06:09:01.837Z,63.20
2023-02-16T06:10:02.323Z,63.50
2023-02-16T06:11:03.368Z,65.20
2023-02-16T06:12:01.876Z,59.40
2023-02-16T06:13:01.952Z,64.00
2023-02-16T06:14:01.863Z,67.10
2023-02-16T06:15:09.851Z,63.90
2023-02-16T06:16:03.139Z,64.60
2023-02-16T06:17:01.751Z,66.00
2023-02-16T06:18:01.732Z,62.70
2023-02-16T06:19:01.748Z,62.70
2023-02-16T06:20:01.824Z,63.80
2023-02-16T06:21:02.033Z,61.20
2023-02-16T06:22:01.705Z,63.60
2023-02-16T06:23:01.761Z,64.30
2023-02-16T06:24:01.973Z,62.50
2023-02-16T06:25:01.760Z,61.50
2023-02-16T06:26:01.939Z,61.70
2023-02-16T06:27:01.649Z,66.40
2023-02-16T06:36:03.092Z,60.10
2023-02-16T06:37:02.813Z,60.50
2023-02-16T06:38:02.812Z,62.10
2023-02-16T06:54:34.188Z,63.40
2023-02-16T07:02:06.968Z,64.60
2023-02-16T07:03:07.557Z,64.50
2023-02-16T07:04:08.787Z,59.20
2023-02-16T07:07:01.593Z,62.40
2023-02-16T07:08:02.546Z,64.10
2023-02-16T07:26:47.196Z,60.80
2023-02-16T08:04:54.041Z,54.20
2023-02-16T08:05:55.070Z,54.90
2023-02-16T08:06:54.983Z,59.10
2023-02-16T08:07:55.267Z,55.60
2023-02-16T08:08:54.915Z,55.50
2023-02-16T08:09:55.257Z,56.20
2023-02-16T08:10:54.946Z,56.10
2023-02-16T08:11:55.352Z,57.70
2023-02-16T08:12:54.947Z,58.70
2023-02-16T08:13:54.924Z,61.30
2023-02-16T08:14:54.929Z,55.20
2023-02-16T08:15:56.879Z,55.10
2023-02-16T08:16:56.718Z,53.60
2023-02-16T08:17:54.904Z,59.00
2023-02-16T08:18:54.831Z,55.80
2023-02-16T08:19:54.897Z,55.50
2023-02-16T08:21:04.176Z,57.60
2023-02-16T08:21:55.209Z,57.30
2023-02-16T08:22:55.564Z,56.00
2023-02-16T08:23:54.751Z,53.10
2023-02-16T08:24:54.783Z,54.10
2023-02-16T08:25:54.766Z,55.90
2023-02-16T08:26:54.779Z,57.20
2023-02-16T08:27:54.777Z,55.90
2023-02-16T08:28:54.695Z,58.20
2023-02-16T08:29:54.838Z,54.90
2023-02-16T08:30:54.754Z,52.80
2023-02-16T08:31:54.732Z,56.70
2023-02-16T08:32:54.662Z,57.20
2023-02-16T08:33:54.647Z,56.10
2023-02-16T08:34:54.638Z,56.50
2023-02-16T08:35:54.650Z,56.50
2023-02-16T08:36:54.642Z,58.00
2023-02-16T08:37:54.662Z,56.00
2023-02-16T08:38:54.619Z,52.00
2023-02-16T08:39:54.647Z,56.30
2023-02-16T08:40:54.895Z,56.80
2023-02-16T08:41:54.640Z,53.00
2023-02-16T08:42:54.627Z,54.60
2023-02-16T08:43:54.551Z,55.10
2023-02-16T08:44:54.638Z,56.00
2023-02-16T08:45:54.681Z,56.20
2023-02-16T08:46:54.556Z,56.10
2023-02-16T08:47:54.527Z,61.60
2023-02-16T08:48:55.907Z,53.40
2023-02-16T08:49:54.542Z,54.40
2023-02-16T08:50:54.506Z,53.00
2023-02-16T08:51:54.442Z,53.50
2023-02-16T08:52:54.453Z,53.40
2023-02-16T08:53:54.450Z,57.20
2023-02-16T08:54:54.469Z,55.90
2023-02-16T08:55:54.463Z,53.00
2023-02-16T08:56:54.384Z,53.50
2023-02-16T08:57:54.384Z,57.10
2023-02-16T08:58:54.604Z,57.40
2023-02-16T08:59:54.345Z,52.20
2023-02-16T09:00:54.758Z,52.70
2023-02-16T09:01:54.334Z,54.00
2023-02-16T09:27:36.307Z,51.40
2023-02-16T11:13:25.541Z,42.00
2023-02-16T11:14:25.255Z,42.60
2023-02-16T11:15:25.169Z,47.50
2023-02-16T11:16:25.438Z,42.70
2023-02-16T11:17:25.156Z,43.50
2023-02-16T11:18:25.265Z,42.80
2023-02-16T11:19:25.148Z,44.70
2023-02-16T11:20:25.177Z,45.00
2023-02-16T11:21:25.159Z,43.00
2023-02-16T11:22:25.165Z,42.50
2023-02-16T11:23:25.078Z,44.80
2023-02-16T11:24:25.106Z,40.40
2023-02-16T11:25:25.024Z,44.20
2023-02-16T11:26:25.156Z,44.30
2023-02-16T11:27:24.994Z,42.90
2023-02-16T11:28:25.181Z,43.20
2023-02-16T11:29:25.331Z,41.70
2023-02-16T11:30:25.269Z,44.40
2023-02-16T11:31:25.111Z,43.20
2023-02-16T11:32:25.011Z,44.40
2023-02-16T11:33:25.008Z,40.30
2023-02-16T11:34:24.967Z,43.40
2023-02-16T11:35:24.908Z,44.70
2023-02-16T11:36:25.004Z,46.90
2023-02-16T11:37:25.197Z,42.10
2023-02-16T11:38:24.885Z,41.40
2023-02-16T11:39:25.326Z,42.50
2023-02-16T11:40:24.906Z,44.40
2023-02-16T11:41:24.997Z,45.00
2023-02-16T11:42:24.899Z,43.80
2023-02-16T11:43:24.996Z,43.10
2023-02-16T11:44:25.137Z,47.50
2023-02-16T11:45:25.020Z,45.40
2023-02-16T11:46:25.526Z,46.80
2023-02-16T11:47:24.795Z,43.40
2023-02-16T11:48:24.782Z,44.70
2023-02-16T11:49:24.756Z,46.40
2023-02-16T11:50:24.910Z,46.30
2023-02-16T11:51:24.743Z,46.10
2023-02-16T11:52:25.070Z,48.10
2023-02-16T11:53:25.211Z,49.30
2023-02-16T11:54:24.687Z,44.60
2023-02-16T11:55:24.753Z,45.70
2023-02-16T11:56:24.790Z,46.50
2023-02-16T11:57:24.696Z,45.20
2023-02-16T11:58:24.696Z,45.40
2023-02-16T11:59:24.642Z,48.40
2023-02-16T12:00:24.728Z,45.60
2023-02-16T12:01:24.644Z,45.20
2023-02-16T12:02:24.854Z,44.90
2023-02-16T12:03:25.164Z,45.30
2023-02-16T12:04:24.598Z,48.80
2023-02-16T12:05:24.646Z,44.80
2023-02-16T12:06:25.323Z,47.40
2023-02-16T12:07:24.594Z,45.70
2023-02-16T12:08:24.782Z,50.50
2023-02-16T12:09:24.579Z,44.50
2023-02-16T12:10:24.511Z,49.10
2023-02-16T12:11:24.516Z,46.20
2023-02-16T12:12:24.518Z,44.10
2023-02-16T12:13:24.547Z,43.60
2023-02-16T12:14:25.180Z,46.10
2023-02-16T12:15:24.500Z,44.80
2023-02-16T12:16:24.482Z,47.80
2023-02-16T12:17:26.395Z,47.00
2023-02-16T12:18:24.756Z,46.80
2023-02-16T12:19:24.749Z,49.80
2023-02-16T12:20:24.735Z,51.10
2023-02-16T12:21:24.494Z,50.30
2023-02-16T12:22:24.417Z,48.10
2023-02-16T12:23:24.597Z,48.30
2023-02-16T12:27:00.039Z,46.40
2023-02-16T12:28:01.664Z,46.60
2023-02-16T12:29:01.011Z,45.60
2023-02-16T12:35:19.272Z,44.50
2023-02-16T12:46:04.023Z,50.80
2023-02-16T12:47:04.429Z,50.30
2023-02-16T12:48:04.366Z,46.40
2023-02-16T12:49:04.394Z,47.30
2023-02-16T12:50:04.364Z,45.10
2023-02-16T12:51:04.658Z,48.70
2023-02-16T12:52:04.384Z,49.90
2023-02-16T12:53:04.505Z,49.80
2023-02-16T12:54:04.316Z,52.80
2023-02-16T12:55:04.289Z,45.70
2023-02-16T12:56:04.784Z,44.20
2023-02-16T13:00:50.936Z,46.50
2023-02-16T13:08:08.590Z,50.00
2023-02-16T13:10:49.993Z,48.10
2023-02-16T13:17:54.152Z,47.30
2023-02-16T13:18:55.127Z,46.90
2023-02-16T13:19:55.115Z,48.20
2023-02-16T13:20:55.140Z,48.70
2023-02-16T13:21:55.090Z,47.90
2023-02-16T13:22:55.064Z,51.70
2023-02-16T13:23:55.044Z,50.40
2023-02-16T13:24:55.211Z,47.40
2023-02-16T13:25:55.192Z,51.10
2023-02-16T13:26:55.061Z,48.30
2023-02-16T13:27:55.064Z,49.50
2023-02-16T13:28:55.150Z,49.90
2023-02-16T13:29:55.076Z,52.50
2023-02-16T13:30:55.131Z,52.20
2023-02-16T13:31:55.039Z,50.60
2023-02-16T13:32:54.963Z,52.90
2023-02-16T13:33:54.917Z,54.60
2023-02-16T13:34:54.910Z,53.50
2023-02-16T13:35:54.944Z,55.60
2023-02-16T13:36:55.432Z,51.40
2023-02-16T13:37:56.406Z,52.80
2023-02-16T13:38:54.886Z,52.00
2023-02-16T13:39:57.851Z,54.20
2023-02-16T13:40:54.871Z,55.20
2023-02-16T13:41:54.859Z,57.10
2023-02-16T13:42:54.902Z,54.10
2023-02-16T13:43:54.854Z,55.80
2023-02-16T13:44:55.098Z,56.00
2023-02-16T13:45:54.901Z,57.30
2023-02-16T13:46:55.042Z,53.60
2023-02-16T13:47:54.769Z,53.90
2023-02-16T13:48:54.880Z,54.40
2023-02-16T13:49:54.773Z,57.40
2023-02-16T13:50:54.744Z,55.70
2023-02-16T13:51:54.754Z,53.50
2023-02-16T13:52:54.709Z,54.60
2023-02-16T13:53:54.755Z,58.80
2023-02-16T13:54:54.687Z,58.00
2023-02-16T13:55:54.793Z,60.30
2023-02-16T13:56:54.684Z,60.80
2023-02-16T13:57:55.363Z,56.20
2023-02-16T13:58:54.732Z,55.30
2023-02-16T13:59:54.669Z,56.60
2023-02-16T14:00:54.688Z,57.00
2023-02-16T14:01:54.612Z,57.10
2023-02-16T14:02:54.646Z,59.20
2023-02-16T14:03:54.700Z,57.90
2023-02-16T14:04:54.663Z,61.80
2023-02-16T14:05:54.605Z,60.20
2023-02-16T14:06:54.599Z,54.90
2023-02-16T14:07:54.616Z,56.90
2023-02-16T14:08:54.615Z,58.30
2023-02-16T14:09:54.776Z,60.10
2023-02-16T14:10:54.504Z,56.10
2023-02-16T14:11:54.560Z,59.60
2023-02-16T14:12:54.516Z,59.20
2023-02-16T14:13:54.605Z,60.00
2023-02-16T14:14:54.582Z,54.20
2023-02-16T14:15:54.577Z,57.50
2023-02-16T14:16:54.451Z,56.60
2023-02-16T14:17:54.424Z,58.90
2023-02-16T14:18:54.454Z,60.70
2023-02-16T14:19:54.478Z,56.00
2023-02-16T14:20:54.405Z,56.00
2023-02-16T14:21:54.429Z,57.80
2023-02-16T14:22:54.389Z,60.60
2023-02-16T14:23:54.500Z,60.60
2023-02-16T14:24:54.352Z,57.10
2023-02-16T14:25:54.395Z,58.50
2023-02-16T14:26:54.439Z,58.80
2023-02-16T14:27:54.431Z,55.80
2023-02-16T14:28:54.368Z,58.30
2023-02-16T14:29:54.456Z,55.40
2023-02-16T14:30:54.332Z,62.20
2023-02-16T14:31:54.620Z,55.70
2023-02-16T14:32:54.363Z,59.90
2023-02-16T14:33:54.339Z,61.70
2023-02-16T14:34:54.274Z,57.70
2023-02-16T14:35:54.243Z,59.10
2023-02-16T14:36:54.331Z,58.20
2023-02-16T14:37:54.287Z,57.60
2023-02-16T14:38:54.193Z,58.90
2023-02-16T14:40:07.277Z,60.80
2023-02-16T14:40:54.197Z,58.40
2023-02-16T14:41:54.178Z,57.10
2023-02-16T14:42:54.133Z,58.60
2023-02-16T14:43:54.186Z,56.70
2023-02-16T14:44:54.150Z,60.10
2023-02-16T14:45:54.158Z,56.00
2023-02-16T14:46:54.139Z,59.30
2023-02-16T14:47:54.149Z,58.00
2023-02-16T14:48:54.111Z,58.40
2023-02-16T14:49:54.056Z,57.90
2023-02-16T14:50:54.138Z,57.40
2023-02-16T14:51:54.144Z,55.70
2023-02-16T14:52:54.035Z,57.50
2023-02-16T14:53:54.165Z,55.50
2023-02-16T14:54:54.039Z,61.70
2023-02-16T14:55:53.996Z,60.60
2023-02-16T14:56:54.062Z,58.80
2023-02-16T14:57:54.043Z,52.90
2023-02-16T14:58:54.168Z,54.80
2023-02-16T14:59:53.961Z,56.30
2023-02-16T15:00:54.032Z,55.00
2023-02-16T15:01:54.004Z,59.10
2023-02-16T15:02:54.030Z,59.40
2023-02-16T15:03:53.993Z,56.60
2023-02-16T15:04:53.980Z,57.60
2023-02-16T15:05:53.909Z,57.60
2023-02-16T15:06:53.885Z,58.30
2023-02-16T15:07:54.183Z,57.80
2023-02-16T15:08:53.864Z,57.70
2023-02-16T15:09:53.863Z,56.70
2023-02-16T15:10:53.869Z,57.20
2023-02-16T15:11:53.812Z,55.00
2023-02-16T15:12:53.805Z,58.30
2023-02-16T15:13:53.879Z,57.30
2023-02-16T15:14:53.782Z,59.30
2023-02-16T15:15:54.363Z,58.50
2023-02-16T15:16:53.760Z,61.60
2023-02-16T15:17:53.793Z,57.10
2023-02-16T15:18:55.697Z,60.20
2023-02-16T15:19:53.723Z,61.20
2023-02-16T15:20:53.720Z,58.90
2023-02-16T15:21:53.702Z,59.20
2023-02-16T15:22:53.723Z,60.50
2023-02-16T15:38:36.447Z,63.10
2023-02-16T15:39:46.336Z,63.60
2023-02-16T15:40:36.094Z,61.50
2023-02-16T15:41:36.016Z,62.00
2023-02-16T15:42:36.091Z,59.80
2023-02-16T15:43:36.014Z,61.10
2023-02-16T15:44:35.978Z,63.70
2023-02-16T15:45:35.989Z,59.80
2023-02-16T15:46:35.990Z,57.20
2023-02-16T15:47:35.960Z,61.70
2023-02-16T15:48:39.960Z,58.60
2023-02-16T15:49:35.967Z,60.40
2023-02-16T15:50:35.977Z,63.80
2023-02-16T15:52:04.851Z,61.10
2023-02-16T15:52:35.896Z,61.10
2023-02-16T15:53:36.045Z,59.00
2023-02-16T15:54:41.780Z,59.20
2023-02-16T15:55:35.853Z,61.80
2023-02-16T15:56:35.867Z,59.70
2023-02-16T15:57:35.824Z,64.10
2023-02-16T15:58:35.823Z,58.20
2023-02-16T15:59:35.932Z,56.20
2023-02-16T16:00:35.915Z,58.80
2023-02-16T16:01:35.926Z,56.40
2023-02-16T16:02:35.769Z,58.50
2023-02-16T16:03:36.154Z,58.50
2023-02-16T16:04:35.826Z,57.30
2023-02-16T16:06:54.250Z,56.10
2023-02-16T16:10:26.240Z,55.30
2023-02-16T16:11:49.772Z,55.50
2023-02-16T16:12:27.258Z,57.10
2023-02-16T16:15:19.266Z,53.70
2023-02-16T16:16:19.002Z,55.20
2023-02-16T16:17:18.955Z,54.60
2023-02-16T16:18:19.077Z,58.80
2023-02-16T16:19:18.933Z,57.40
2023-02-16T16:20:18.896Z,58.00
2023-02-16T16:21:19.113Z,58.90
2023-02-16T16:22:22.108Z,53.10
2023-02-16T16:23:19.021Z,56.50
2023-02-16T16:24:18.875Z,58.90
2023-02-16T16:25:18.962Z,58.80
2023-02-16T16:26:18.887Z,58.60
2023-02-16T16:27:18.870Z,58.50
2023-02-16T16:28:20.417Z,57.20
2023-02-16T16:29:19.954Z,59.00
2023-02-16T16:30:18.845Z,56.30
2023-02-16T16:31:18.969Z,57.50
2023-02-16T16:32:19.166Z,56.30
2023-02-16T16:35:00.325Z,60.40
2023-02-16T16:36:00.099Z,59.60
2023-02-16T16:37:00.028Z,57.20
2023-02-16T16:38:00.036Z,61.70
2023-02-16T16:39:00.002Z,60.30
2023-02-16T16:40:01.081Z,58.70
2023-02-16T16:41:00.603Z,60.50
2023-02-16T16:41:59.999Z,57.20
2023-02-16T16:42:59.966Z,59.90
2023-02-16T16:43:59.930Z,59.00
2023-02-16T16:45:00.028Z,60.90
2023-02-16T16:45:59.937Z,57.80
2023-02-16T16:47:00.227Z,59.80
2023-02-16T16:47:59.973Z,56.50
2023-02-16T16:49:00.985Z,59.10
2023-02-16T16:52:57.512Z,55.30
2023-02-16T16:53:58.422Z,55.40
2023-02-16T16:57:00.857Z,56.90
2023-02-16T16:58:01.441Z,56.10
2023-02-16T16:59:05.757Z,56.10
2023-02-16T17:00:01.804Z,56.20
2023-02-16T17:01:01.364Z,55.50
2023-02-16T17:06:29.007Z,56.30
2023-02-16T17:15:40.789Z,57.50
2023-02-16T17:16:40.161Z,57.20
2023-02-16T17:17:40.390Z,56.00
2023-02-16T17:18:43.155Z,54.30
2023-02-16T17:19:42.444Z,55.00
2023-02-16T17:20:41.975Z,54.40
2023-02-16T17:24:29.092Z,54.70
2023-02-16T17:27:24.051Z,53.40
2023-02-16T17:50:37.547Z,55.40
2023-02-16T17:53:07.557Z,57.60
2023-02-16T17:54:08.589Z,56.10
2023-02-16T17:55:08.524Z,54.90
2023-02-16T17:56:08.583Z,55.30
2023-02-16T17:59:34.069Z,55.40
2023-02-16T18:08:46.954Z,55.90
2023-02-16T18:13:47.619Z,60.70
2023-02-16T18:21:37.066Z,54.10
2023-02-16T18:31:24.676Z,56.20
2023-02-16T18:32:30.718Z,56.80
2023-02-16T18:33:26.495Z,53.60
2023-02-16T18:34:27.386Z,54.40
2023-02-16T18:35:26.186Z,54.50
2023-02-16T18:42:37.168Z,51.50
2023-02-16T18:43:27.454Z,53.10
2023-02-16T18:44:20.817Z,52.10
2023-02-16T18:45:17.632Z,51.30
2023-02-16T18:46:18.488Z,52.90
2023-02-16T18:47:19.073Z,46.20
2023-02-16T18:48:18.584Z,48.80
2023-02-16T18:49:17.598Z,49.90
2023-02-16T18:54:54.803Z,49.60
2023-02-16T18:55:01.047Z,49.10
2023-02-16T18:56:12.901Z,47.50
2023-02-16T18:57:08.748Z,45.20
2023-02-16T18:58:02.015Z,46.00
2023-02-16T18:59:20.142Z,43.90
2023-02-16T19:00:04.178Z,46.90
2023-02-16T19:00:59.751Z,41.60
2023-02-16T19:01:59.939Z,42.10
2023-02-16T19:03:05.139Z,45.20
2023-02-16T19:04:02.438Z,45.20
2023-02-16T19:04:59.741Z,43.00
2023-02-16T19:06:18.491Z,45.80
2023-02-16T19:06:59.646Z,43.10
2023-02-16T19:07:59.631Z,40.60
2023-02-16T19:08:59.780Z,41.20
2023-02-16T19:09:59.685Z,44.40
2023-02-16T19:11:01.160Z,39.40
2023-02-16T19:12:04.133Z,41.30
2023-02-16T19:24:15.348Z,37.80
2023-02-16T19:25:15.904Z,38.10
2023-02-16T19:26:17.655Z,35.40
2023-02-16T19:27:15.900Z,37.60
2023-02-16T19:28:20.952Z,37.80
2023-02-16T19:29:15.877Z,35.80
2023-02-16T19:30:24.882Z,37.80
2023-02-16T19:31:15.997Z,38.40
2023-02-16T19:32:15.906Z,35.80
2023-02-16T19:33:15.889Z,37.60
2023-02-16T19:34:15.978Z,36.50
2023-02-16T19:35:15.830Z,40.10
2023-02-16T19:36:17.916Z,36.80
2023-02-16T19:37:16.970Z,39.60
2023-02-16T19:38:16.994Z,35.60
2023-02-16T19:39:28.621Z,37.60
2023-02-16T19:40:15.719Z,38.60
2023-02-16T19:41:17.828Z,36.90
2023-02-16T19:42:18.671Z,37.40
2023-02-16T19:43:16.206Z,34.60
2023-02-16T19:44:32.621Z,36.30
2023-02-16T19:45:16.514Z,37.30
2023-02-16T19:46:24.394Z,36.00
2023-02-16T19:48:11.755Z,37.90
2023-02-16T19:48:16.700Z,36.40
2023-02-16T19:49:26.120Z,33.60
2023-02-16T19:50:16.885Z,33.70
2023-02-16T19:51:17.175Z,35.90
2023-02-16T19:52:17.244Z,35.50
2023-02-16T19:53:17.006Z,36.90
2023-02-16T19:54:22.341Z,39.30
2023-02-16T19:55:17.394Z,36.70
2023-02-16T19:56:17.011Z,39.80
2023-02-16T19:59:16.935Z,39.70
2023-02-16T19:59:30.518Z,40.00
2023-02-16T20:00:26.008Z,39.80
2023-02-16T20:10:22.760Z,44.30
2023-02-16T20:10:32.184Z,42.10
2023-02-16T20:11:30.157Z,44.60
2023-02-16T20:12:30.488Z,44.50
2023-02-16T20:13:30.430Z,46.30
2023-02-16T20:31:34.110Z,60.80
2023-02-16T20:32:33.295Z,59.70
2023-02-16T20:33:35.105Z,64.50
2023-02-16T20:55:12.869Z,79.70
2023-02-16T20:56:11.882Z,78.00
2023-02-16T20:57:24.952Z,92.30
2023-02-16T20:58:39.983Z,89.70
2023-02-16T20:59:11.895Z,91.40
2023-02-16T21:00:11.855Z,91.90
2023-02-16T21:01:11.855Z,93.40
2023-02-16T21:02:12.002Z,93.80
2023-02-16T21:08:34.989Z,91.70
2023-02-16T21:09:36.039Z,92.10
2023-02-16T21:10:37.632Z,105.70
2023-02-16T21:11:36.544Z,104.20
2023-02-16T21:12:35.723Z,111.40
2023-02-16T21:13:35.751Z,101.70
2023-02-16T21:14:35.696Z,110.70
2023-02-16T21:18:46.794Z,115.40
2023-02-16T21:19:47.767Z,114.50
2023-02-16T21:20:47.929Z,102.10
2023-02-16T21:21:47.957Z,88.90
2023-02-16T21:22:47.766Z,89.20
2023-02-16T21:23:47.729Z,97.30
2023-02-16T21:24:47.711Z,96.90
2023-02-16T21:25:47.709Z,97.00
2023-02-16T21:26:47.817Z,94.20
2023-02-16T21:27:47.708Z,94.20
2023-02-16T21:28:47.671Z,97.90
2023-02-16T21:29:47.610Z,92.30
2023-02-16T21:30:47.750Z,102.60
2023-02-16T21:31:49.075Z,103.70
2023-02-16T21:32:48.792Z,93.00
2023-02-16T21:33:47.637Z,101.60
2023-02-16T21:34:47.626Z,99.60
2023-02-16T21:35:47.768Z,100.00
2023-02-16T21:36:47.654Z,88.90
2023-02-16T21:37:47.580Z,94.30
2023-02-16T21:38:47.568Z,93.50
2023-02-16T21:39:47.533Z,95.80
2023-02-16T21:40:47.885Z,95.30
2023-02-16T21:41:47.595Z,105.00
2023-02-16T21:42:47.587Z,98.90
2023-02-16T21:43:47.517Z,95.20
2023-02-16T21:44:47.467Z,96.40
2023-02-16T21:45:47.473Z,95.40
2023-02-16T21:46:47.414Z,93.20
2023-02-16T21:47:47.444Z,104.60
2023-02-16T21:48:47.526Z,113.70
2023-02-16T21:49:47.766Z,111.00
2023-02-16T21:50:47.771Z,107.10
2023-02-16T21:51:47.374Z,93.80
2023-02-16T21:52:47.476Z,100.60
2023-02-16T21:53:47.397Z,103.30
2023-02-16T21:54:47.426Z,106.60
2023-02-16T21:55:47.311Z,101.60
2023-02-16T21:56:47.509Z,103.60
2023-02-16T21:57:47.660Z,98.90
2023-02-16T21:58:47.434Z,103.00
2023-02-16T21:59:47.330Z,111.50
2023-02-16T22:00:50.549Z,109.90
2023-02-16T22:01:47.299Z,106.50
2023-02-16T22:02:47.314Z,98.50
2023-02-16T22:03:47.279Z,101.70
2023-02-16T22:04:47.577Z,111.10
2023-02-16T22:05:47.240Z,100.50
2023-02-16T22:06:47.258Z,110.00
2023-02-16T22:07:47.570Z,117.70
2023-02-16T22:08:48.090Z,111.40
2023-02-16T22:09:50.594Z,108.70
2023-02-16T22:10:47.166Z,109.30
2023-02-16T22:11:47.401Z,110.70
2023-02-16T22:12:47.127Z,110.90
2023-02-16T22:13:47.130Z,111.40
2023-02-16T22:14:48.270Z,107.70
2023-02-16T22:15:47.140Z,105.90
2023-02-16T22:16:47.446Z,125.80
2023-02-16T22:17:47.114Z,106.10
2023-02-16T22:18:47.276Z,104.30
2023-02-16T22:19:47.040Z,110.00
2023-02-16T22:20:47.101Z,109.30
2023-02-16T22:21:47.067Z,112.30
2023-02-16T22:22:47.035Z,110.40
2023-02-16T22:23:48.758Z,107.00
2023-02-16T22:24:47.024Z,107.00
2023-02-16T22:25:47.287Z,106.10
2023-02-16T22:26:47.192Z,109.30
2023-02-16T22:27:47.826Z,103.30
2023-02-16T22:28:47.001Z,102.60
2023-02-16T22:29:47.321Z,108.40
2023-02-16T22:30:46.949Z,114.80
2023-02-16T22:31:47.394Z,106.90
2023-02-16T22:32:49.942Z,107.20
2023-02-16T22:33:47.023Z,116.80
2023-02-16T22:34:46.882Z,102.30
2023-02-16T22:35:46.986Z,105.00
2023-02-16T22:36:46.888Z,116.40
2023-02-16T22:37:46.942Z,102.10
2023-02-16T22:38:46.895Z,113.90
2023-02-16T22:39:47.108Z,113.40
2023-02-16T22:40:48.775Z,106.90
2023-02-16T22:41:46.909Z,108.90
2023-02-16T22:42:47.193Z,108.00
2023-02-16T22:43:46.807Z,108.90
2023-02-16T22:44:46.802Z,112.00
2023-02-16T22:45:46.803Z,111.80
2023-02-16T22:46:46.838Z,113.50
2023-02-16T22:47:47.211Z,112.50
2023-02-16T22:48:46.761Z,101.80
2023-02-16T22:49:46.864Z,105.00
2023-02-16T22:50:46.709Z,105.90
2023-02-16T22:51:46.752Z,107.70
2023-02-16T22:52:46.691Z,102.60
2023-02-16T22:53:46.976Z,108.20
2023-02-16T22:54:46.831Z,113.80
2023-02-16T22:55:47.485Z,117.80
2023-02-16T22:56:46.659Z,110.50
2023-02-16T22:57:46.953Z,98.90
2023-02-16T22:58:46.989Z,104.20
2023-02-16T22:59:46.671Z,99.20
2023-02-16T23:00:47.352Z,112.90
2023-02-16T23:01:46.621Z,105.50
2023-02-16T23:02:46.852Z,108.00
2023-02-16T23:03:46.650Z,107.70
2023-02-16T23:04:47.613Z,117.60
2023-02-16T23:05:47.387Z,118.30
2023-02-16T23:06:46.572Z,113.10
2023-02-16T23:07:46.738Z,110.80
2023-02-16T23:08:46.711Z,113.40
2023-02-16T23:09:46.922Z,114.90
2023-02-16T23:10:46.838Z,115.50
2023-02-16T23:11:46.680Z,108.20
2023-02-16T23:12:46.457Z,113.90
2023-02-16T23:13:46.497Z,101.90
2023-02-16T23:14:46.488Z,109.60
2023-02-16T23:15:46.649Z,107.10
2023-02-16T23:16:49.046Z,103.60
2023-02-16T23:17:46.455Z,101.90
2023-02-16T23:18:46.606Z,109.20
2023-02-16T23:19:46.520Z,106.30
2023-02-16T23:20:46.462Z,99.80
2023-02-16T23:22:00.746Z,101.20
2023-02-16T23:22:46.440Z,109.30
2023-02-16T23:23:46.448Z,108.60
2023-02-16T23:24:47.734Z,101.70
2023-02-16T23:25:47.387Z,98.80
2023-02-16T23:26:46.345Z,105.30
2023-02-16T23:27:46.572Z,101.50
2023-02-16T23:28:46.462Z,99.00
2023-02-16T23:29:46.433Z,100.10
2023-02-16T23:30:52.807Z,101.10
2023-02-16T23:31:46.373Z,97.60
2023-02-16T23:32:46.565Z,99.70
2023-02-16T23:33:46.322Z,98.80
2023-02-16T23:34:54.518Z,102.50
2023-02-16T23:35:48.166Z,107.70
2023-02-16T23:36:46.564Z,97.80
2023-02-16T23:37:46.486Z,101.80
2023-02-16T23:38:46.239Z,91.70
2023-02-16T23:39:46.168Z,94.10
2023-02-16T23:40:46.159Z,89.40
2023-02-16T23:41:46.205Z,86.60
2023-02-16T23:42:46.171Z,97.10
2023-02-16T23:43:46.415Z,84.60
2023-02-16T23:44:46.082Z,84.70
2023-02-16T23:45:46.141Z,81.10
2023-02-16T23:46:46.193Z,84.30
2023-02-16T23:47:46.796Z,87.20
2023-02-16T23:48:46.595Z,87.90
2023-02-16T23:49:46.052Z,90.90
2023-02-16T23:50:46.089Z,82.90
2023-02-16T23:51:46.039Z,78.00
2023-02-16T23:52:46.207Z,82.10
2023-02-16T23:53:46.089Z,78.30
2023-02-16T23:54:46.284Z,83.90
2023-02-16T23:55:49.875Z,71.40
2023-02-16T23:56:46.065Z,85.20
2023-02-16T23:57:46.306Z,76.80
2023-02-16T23:58:46.010Z,83.80
2023-02-16T23:59:45.954Z,76.70
